createdAt,value
2017-08-19T00:00:08.760Z,0.77
2017-08-19T00:02:37.071Z,0.20
2017-08-19T00:05:06.165Z,0.27
2017-08-19T00:07:35.449Z,0.30
2017-08-19T00:10:03.827Z,0.30
2017-08-19T00:12:32.116Z,0.20
2017-08-19T00:15:00.432Z,0.20
2017-08-19T00:17:28.718Z,0.20
2017-08-19T00:19:57.032Z,0.30
2017-08-19T00:22:26.121Z,0.30
2017-08-19T00:24:54.394Z,1.13
2017-08-19T00:27:22.716Z,0.30
2017-08-19T00:29:51.753Z,0.20
2017-08-19T00:32:20.039Z,0.27
2017-08-19T00:34:48.366Z,0.20
2017-08-19T00:37:16.711Z,0.20
2017-08-19T00:39:45.018Z,0.20
2017-08-19T00:42:13.294Z,0.20
2017-08-19T00:44:41.611Z,0.40
2017-08-19T00:47:09.928Z,0.50
2017-08-19T00:49:38.207Z,0.20
2017-08-19T00:52:06.536Z,0.20
2017-08-19T00:54:35.578Z,0.20
2017-08-19T00:57:03.868Z,0.30
2017-08-19T00:59:32.184Z,0.30
2017-08-19T01:02:00.478Z,0.20
2017-08-19T01:04:28.796Z,0.40
2017-08-19T01:06:57.844Z,0.20
2017-08-19T01:09:26.168Z,0.20
2017-08-19T01:11:54.474Z,0.20
2017-08-19T01:14:23.538Z,0.30
2017-08-19T01:16:51.850Z,0.20
2017-08-19T01:19:20.123Z,0.20
2017-08-19T01:21:48.452Z,0.30
2017-08-19T01:24:16.763Z,0.20
2017-08-19T01:26:56.832Z,0.37
2017-08-19T01:29:25.143Z,0.20
2017-08-19T01:31:53.437Z,0.30
2017-08-19T01:34:21.751Z,134.57
2017-08-19T01:36:50.059Z,999.90
2017-08-19T01:39:19.169Z,21.17
2017-08-19T01:41:47.455Z,58.97
2017-08-19T01:44:16.560Z,999.90
2017-08-19T01:46:45.641Z,999.90
2017-08-19T01:49:13.935Z,39.30
2017-08-19T01:51:42.267Z,999.90
2017-08-19T01:54:10.593Z,999.90
2017-08-19T01:56:38.949Z,469.93
2017-08-19T01:59:07.252Z,273.90
2017-08-19T02:01:35.547Z,0.30
2017-08-19T02:04:03.851Z,0.30
2017-08-19T02:06:32.168Z,0.40
2017-08-19T02:09:00.453Z,0.53
2017-08-19T02:11:28.745Z,0.30
2017-08-19T02:13:57.055Z,0.47
2017-08-19T02:16:25.340Z,0.93
2017-08-19T02:18:53.666Z,2.20
2017-08-19T02:21:21.976Z,0.30
2017-08-19T02:23:50.274Z,0.30
2017-08-19T02:26:18.591Z,0.40
2017-08-19T02:28:46.867Z,0.30
2017-08-19T02:31:15.147Z,0.30
2017-08-19T02:33:43.477Z,0.30
2017-08-19T02:36:12.561Z,0.87
2017-08-19T02:38:40.849Z,0.40
2017-08-19T02:41:09.177Z,0.30
2017-08-19T02:43:38.234Z,0.30
2017-08-19T02:46:06.535Z,0.30
2017-08-19T02:48:35.277Z,0.30
2017-08-19T02:51:03.560Z,0.30
2017-08-19T02:53:32.648Z,0.40
2017-08-19T02:56:00.922Z,0.50
2017-08-19T02:58:29.240Z,0.40
2017-08-19T03:00:58.283Z,0.30
2017-08-19T03:03:26.604Z,0.93
2017-08-19T03:05:54.943Z,0.30
2017-08-19T03:08:23.255Z,0.30
2017-08-19T03:10:52.530Z,0.40
2017-08-19T03:13:21.588Z,0.30
2017-08-19T03:15:49.891Z,0.30
2017-08-19T03:18:18.172Z,0.40
2017-08-19T03:20:46.480Z,0.77
2017-08-19T03:23:14.777Z,0.30
2017-08-19T03:25:43.105Z,0.30
2017-08-19T03:28:11.382Z,0.30
2017-08-19T03:30:39.664Z,0.30
2017-08-19T03:33:08.747Z,0.60
2017-08-19T03:35:37.040Z,0.30
2017-08-19T03:38:05.359Z,0.40
2017-08-19T03:40:33.646Z,0.30
2017-08-19T03:43:01.950Z,1.03
2017-08-19T03:45:30.258Z,0.30
2017-08-19T03:47:58.580Z,0.73
2017-08-19T03:50:26.896Z,0.30
2017-08-19T03:52:55.939Z,0.30
2017-08-19T03:55:24.228Z,0.30
2017-08-19T03:57:52.557Z,1.07
2017-08-19T04:00:20.826Z,0.30
2017-08-19T04:02:49.103Z,0.30
2017-08-19T04:05:17.428Z,0.30
2017-08-19T04:07:45.717Z,0.30
2017-08-19T04:10:13.990Z,0.30
2017-08-19T04:12:42.299Z,0.30
2017-08-19T04:15:11.357Z,0.30
2017-08-19T04:17:39.685Z,0.30
2017-08-19T04:20:08.000Z,0.30
2017-08-19T04:22:37.052Z,0.30
2017-08-19T04:25:05.359Z,0.40
2017-08-19T04:27:33.639Z,0.40
2017-08-19T04:30:01.911Z,0.30
2017-08-19T04:32:30.222Z,0.30
2017-08-19T04:34:58.535Z,0.30
2017-08-19T04:37:26.852Z,0.30
2017-08-19T04:39:55.144Z,0.30
2017-08-19T04:42:23.460Z,0.30
2017-08-19T04:44:51.779Z,0.30
2017-08-19T04:47:20.056Z,0.30
2017-08-19T04:49:48.384Z,0.97
2017-08-19T04:52:16.663Z,0.30
2017-08-19T04:54:44.962Z,0.40
2017-08-19T04:57:13.747Z,0.83
2017-08-19T04:59:42.094Z,0.30
2017-08-19T05:02:10.367Z,0.30
2017-08-19T05:04:38.660Z,0.30
2017-08-19T05:07:06.975Z,0.30
2017-08-19T05:09:35.261Z,0.30
2017-08-19T05:12:03.548Z,0.30
2017-08-19T05:14:31.864Z,0.30
2017-08-19T05:17:00.243Z,0.30
2017-08-19T05:19:28.573Z,0.40
2017-08-19T05:21:56.855Z,0.30
2017-08-19T05:24:25.180Z,0.30
2017-08-19T05:26:53.473Z,0.30
2017-08-19T05:29:21.797Z,1.27
2017-08-19T05:31:50.121Z,0.30
2017-08-19T05:34:19.208Z,0.60
2017-08-19T05:36:47.484Z,0.30
2017-08-19T05:39:15.758Z,0.30
2017-08-19T05:41:44.067Z,0.47
2017-08-19T05:44:12.370Z,0.30
2017-08-19T05:46:40.679Z,0.30
2017-08-19T05:49:08.959Z,0.30
2017-08-19T05:51:38.036Z,0.30
2017-08-19T05:54:06.341Z,0.30
2017-08-19T05:56:34.618Z,0.30
2017-08-19T05:59:02.940Z,0.30
2017-08-19T06:01:32.029Z,0.40
2017-08-19T06:04:00.343Z,0.40
2017-08-19T06:06:29.401Z,0.30
2017-08-19T06:08:57.714Z,0.30
2017-08-19T06:11:26.036Z,0.30
2017-08-19T06:13:55.081Z,0.33
2017-08-19T06:16:23.405Z,0.40
2017-08-19T06:18:51.707Z,0.30
2017-08-19T06:21:20.760Z,1.83
2017-08-19T06:23:49.085Z,0.70
2017-08-19T06:26:17.365Z,0.40
2017-08-19T06:28:45.701Z,0.30
2017-08-19T06:31:13.979Z,0.30
2017-08-19T06:33:43.031Z,0.40
2017-08-19T06:36:11.335Z,0.30
2017-08-19T06:38:39.619Z,0.30
2017-08-19T06:41:07.973Z,0.87
2017-08-19T06:43:36.257Z,0.30
2017-08-19T06:46:04.564Z,0.30
2017-08-19T06:48:32.882Z,0.30
2017-08-19T06:51:01.193Z,0.30
2017-08-19T06:53:29.510Z,0.30
2017-08-19T06:55:57.796Z,0.30
2017-08-19T06:58:26.862Z,0.30
2017-08-19T07:00:55.177Z,0.30
2017-08-19T07:03:24.222Z,0.30
2017-08-19T07:05:52.512Z,0.30
2017-08-19T07:08:20.838Z,0.30
2017-08-19T07:10:49.125Z,0.30
2017-08-19T07:13:17.447Z,0.37
2017-08-19T07:15:46.486Z,0.30
2017-08-19T07:18:14.818Z,0.30
2017-08-19T07:20:43.122Z,0.30
2017-08-19T07:23:12.175Z,0.30
2017-08-19T07:25:40.743Z,0.30
2017-08-19T07:28:09.030Z,0.30
2017-08-19T07:30:38.112Z,0.30
2017-08-19T07:33:06.404Z,0.30
2017-08-19T07:35:34.675Z,0.50
2017-08-19T07:38:03.010Z,0.30
2017-08-19T07:40:31.292Z,0.30
2017-08-19T07:43:00.342Z,0.30
2017-08-19T07:45:28.656Z,0.30
2017-08-19T07:47:56.948Z,0.93
2017-08-19T07:50:26.189Z,0.30
2017-08-19T07:52:55.277Z,0.30
2017-08-19T07:55:23.560Z,0.30
2017-08-19T07:57:51.891Z,454.33
2017-08-19T08:00:20.191Z,68.07
2017-08-19T08:02:48.519Z,66.57
2017-08-19T08:05:16.816Z,52.80
2017-08-19T08:07:45.099Z,57.23
2017-08-19T08:10:13.442Z,44.37
2017-08-19T08:12:41.733Z,46.00
2017-08-19T08:15:10.033Z,32.13
2017-08-19T08:17:38.364Z,39.07
2017-08-19T08:20:06.670Z,24.80
2017-08-19T08:22:35.760Z,25.67
2017-08-19T08:25:04.053Z,17.57
2017-08-19T08:27:32.378Z,16.30
2017-08-19T08:30:00.717Z,15.87
2017-08-19T08:32:29.008Z,12.50
2017-08-19T08:34:57.318Z,12.70
2017-08-19T08:37:26.397Z,370.77
2017-08-19T08:39:54.699Z,999.90
2017-08-19T08:42:23.061Z,999.90
2017-08-19T08:44:51.376Z,999.90
2017-08-19T08:47:19.683Z,999.90
2017-08-19T08:49:48.796Z,999.90
2017-08-19T08:52:17.864Z,9.03
2017-08-19T08:54:46.180Z,1.60
2017-08-19T08:57:14.504Z,2.40
2017-08-19T08:59:42.787Z,2.40
2017-08-19T09:02:11.868Z,2.10
2017-08-19T09:04:40.152Z,2.07
2017-08-19T09:07:08.436Z,2.00
2017-08-19T09:09:36.749Z,2.37
2017-08-19T09:12:05.800Z,1.80
2017-08-19T09:14:34.074Z,1.70
2017-08-19T09:17:02.394Z,1.97
2017-08-19T09:19:30.674Z,2.43
2017-08-19T09:21:58.954Z,2.23
2017-08-19T09:24:27.263Z,1.50
2017-08-19T09:26:55.585Z,1.67
2017-08-19T09:29:23.872Z,1.40
2017-08-19T09:31:52.157Z,1.33
2017-08-19T09:34:20.489Z,1.23
2017-08-19T09:36:48.759Z,1.50
2017-08-19T09:39:17.812Z,1.50
2017-08-19T09:41:46.122Z,1.27
2017-08-19T09:44:14.448Z,1.37
2017-08-19T09:46:43.068Z,1.10
2017-08-19T09:49:11.361Z,1.10
2017-08-19T09:51:40.482Z,0.87
2017-08-19T09:54:08.819Z,1.00
2017-08-19T09:56:37.889Z,0.90
2017-08-19T09:59:06.177Z,1.10
2017-08-19T10:01:34.496Z,0.80
2017-08-19T10:04:02.790Z,1.10
2017-08-19T10:06:31.117Z,1.00
2017-08-19T10:12:00.571Z,0.80
2017-08-19T10:14:28.935Z,0.97
2017-08-19T10:16:57.481Z,0.90
2017-08-19T10:19:25.782Z,0.80
2017-08-19T10:21:54.090Z,0.77
2017-08-19T10:24:22.496Z,0.93
2017-08-19T10:26:50.912Z,0.80
2017-08-19T10:29:20.086Z,0.90
2017-08-19T10:31:48.388Z,4.20
2017-08-19T10:34:16.780Z,62.07
2017-08-19T10:36:45.066Z,0.80
2017-08-19T10:39:13.391Z,2.80
2017-08-19T10:41:41.684Z,1.47
2017-08-19T10:44:10.030Z,32.63
2017-08-19T10:46:38.318Z,8.60
2017-08-19T10:49:06.631Z,158.70
2017-08-19T10:51:35.736Z,232.43
2017-08-19T10:54:04.841Z,4.87
2017-08-19T10:56:33.195Z,1.80
2017-08-19T10:59:01.608Z,249.13
2017-08-19T11:01:29.926Z,220.43
2017-08-19T11:03:59.037Z,97.60
2017-08-19T11:06:27.398Z,999.90
2017-08-19T11:08:55.740Z,999.90
2017-08-19T11:11:24.090Z,999.90
2017-08-19T11:13:53.198Z,28.43
2017-08-19T11:16:21.496Z,1.67
2017-08-19T11:18:50.700Z,2.33
2017-08-19T11:21:19.019Z,2.60
2017-08-19T11:23:47.363Z,2.40
2017-08-19T11:26:15.852Z,2.63
2017-08-19T11:28:44.152Z,3.03
2017-08-19T11:31:12.485Z,2.30
2017-08-19T11:33:40.771Z,1.90
2017-08-19T11:36:09.086Z,2.87
2017-08-19T11:38:37.398Z,6.60
2017-08-19T11:41:05.697Z,3.30
2017-08-19T11:43:34.024Z,4.13
2017-08-19T11:46:02.375Z,136.50
2017-08-19T11:48:30.725Z,0.80
2017-08-19T11:50:59.042Z,0.93
2017-08-19T11:53:27.338Z,1.00
2017-08-19T11:55:55.661Z,1.30
2017-08-19T11:58:24.746Z,1.30
2017-08-19T12:00:53.150Z,1.10
2017-08-19T12:03:21.428Z,1.23
2017-08-19T12:05:49.739Z,1.00
2017-08-19T12:08:18.806Z,0.90
2017-08-19T12:10:47.127Z,5.90
2017-08-19T12:13:16.219Z,1.30
2017-08-19T12:15:44.608Z,16.20
2017-08-19T12:18:12.990Z,3.67
2017-08-19T12:20:41.282Z,248.60
2017-08-19T12:23:09.601Z,94.87
2017-08-19T12:25:38.691Z,391.23
2017-08-19T12:28:07.790Z,24.77
2017-08-19T12:30:36.087Z,12.60
2017-08-19T12:33:04.470Z,18.93
2017-08-19T12:35:32.755Z,1.80
2017-08-19T12:38:01.151Z,0.90
2017-08-19T12:40:29.436Z,0.97
2017-08-19T12:42:57.722Z,0.90
2017-08-19T12:45:26.035Z,3.73
2017-08-19T12:47:54.420Z,10.57
2017-08-19T12:50:22.807Z,20.40
2017-08-19T12:52:51.100Z,11.83
2017-08-19T12:55:19.424Z,6.53
2017-08-19T12:57:47.778Z,12.23
2017-08-19T13:00:16.169Z,4.10
2017-08-19T13:02:44.563Z,1.00
2017-08-19T13:05:12.880Z,5.20
2017-08-19T13:07:41.191Z,1.80
2017-08-19T13:10:09.490Z,0.40
2017-08-19T13:12:37.798Z,1.47
2017-08-19T13:15:06.107Z,0.90
2017-08-19T13:17:34.488Z,2.27
2017-08-19T13:20:02.816Z,4.10
2017-08-19T13:22:31.901Z,5.03
2017-08-19T13:25:00.275Z,4.77
2017-08-19T13:27:28.680Z,5.20
2017-08-19T13:29:57.045Z,0.50
2017-08-19T13:32:25.328Z,1.23
2017-08-19T13:34:53.638Z,0.60
2017-08-19T13:37:21.915Z,0.60
2017-08-19T13:39:50.245Z,1.07
2017-08-19T13:42:19.333Z,1.43
2017-08-19T13:44:47.621Z,0.43
2017-08-19T13:47:16.020Z,0.50
2017-08-19T13:49:45.103Z,0.47
2017-08-19T13:52:13.389Z,0.60
2017-08-19T13:54:41.706Z,0.40
2017-08-19T13:57:10.099Z,0.50
2017-08-19T13:59:38.472Z,0.83
2017-08-19T14:02:06.792Z,0.50
2017-08-19T14:04:35.860Z,0.50
2017-08-19T14:07:04.166Z,0.70
2017-08-19T14:09:32.456Z,0.80
2017-08-19T14:12:00.858Z,0.50
2017-08-19T14:14:29.255Z,0.90
2017-08-19T14:16:57.540Z,0.50
2017-08-19T14:19:26.416Z,0.40
2017-08-19T14:21:54.731Z,0.73
2017-08-19T14:24:23.024Z,0.53
2017-08-19T14:26:51.322Z,0.83
2017-08-19T14:29:20.408Z,0.50
2017-08-19T14:31:48.729Z,0.80
2017-08-19T14:34:17.781Z,0.80
2017-08-19T14:36:46.054Z,0.70
2017-08-19T14:39:14.391Z,1.20
2017-08-19T14:41:42.675Z,0.60
2017-08-19T14:44:11.076Z,1.00
2017-08-19T14:46:39.467Z,0.60
2017-08-19T14:49:07.851Z,1.10
2017-08-19T14:51:36.138Z,0.97
2017-08-19T14:54:04.481Z,0.97
2017-08-19T14:56:32.837Z,0.60
2017-08-19T14:59:01.215Z,0.80
2017-08-19T15:01:29.553Z,1.13
2017-08-19T15:03:57.844Z,0.50
2017-08-19T15:06:26.123Z,0.53
2017-08-19T15:08:54.484Z,0.60
2017-08-19T15:11:22.799Z,0.60
2017-08-19T15:13:51.881Z,1.10
2017-08-19T15:16:20.159Z,0.60
2017-08-19T15:18:48.457Z,0.77
2017-08-19T15:21:16.852Z,0.70
2017-08-19T15:23:45.248Z,0.50
2017-08-19T15:26:14.309Z,0.80
2017-08-19T15:28:42.633Z,1.00
2017-08-19T15:31:10.938Z,0.40
2017-08-19T15:33:39.218Z,0.60
2017-08-19T15:36:07.591Z,1.17
2017-08-19T15:38:36.710Z,0.50
2017-08-19T15:41:05.104Z,0.40
2017-08-19T15:43:33.501Z,0.70
2017-08-19T15:46:01.892Z,0.87
2017-08-19T15:48:30.278Z,0.53
2017-08-19T15:50:58.578Z,9.27
2017-08-19T15:53:27.775Z,243.70
2017-08-19T15:55:56.163Z,223.80
2017-08-19T15:58:24.564Z,146.60
2017-08-19T16:00:52.942Z,130.47
2017-08-19T16:03:21.236Z,0.90
2017-08-19T16:05:49.528Z,0.73
2017-08-19T16:08:17.912Z,0.60
2017-08-19T16:10:46.216Z,0.70
2017-08-19T16:13:14.555Z,0.70
2017-08-19T16:15:42.831Z,0.70
2017-08-19T16:18:11.112Z,1.20
2017-08-19T16:20:39.427Z,0.60
2017-08-19T16:23:07.750Z,0.67
2017-08-19T16:25:36.072Z,0.60
2017-08-19T16:28:05.124Z,0.70
2017-08-19T16:30:33.544Z,0.50
2017-08-19T16:33:01.869Z,0.80
2017-08-19T16:35:30.142Z,0.80
2017-08-19T16:37:59.337Z,0.57
2017-08-19T16:40:27.615Z,0.50
2017-08-19T16:42:56.012Z,0.60
2017-08-19T16:45:24.318Z,0.70
2017-08-19T16:47:53.377Z,0.50
2017-08-19T16:50:21.679Z,0.63
2017-08-19T16:52:49.996Z,0.63
2017-08-19T16:55:18.382Z,0.77
2017-08-19T16:57:46.703Z,0.60
2017-08-19T17:00:15.023Z,0.80
2017-08-19T17:02:43.945Z,0.60
2017-08-19T17:05:12.352Z,0.80
2017-08-19T17:07:40.832Z,0.70
2017-08-19T17:10:09.103Z,0.60
2017-08-19T17:12:37.535Z,0.60
2017-08-19T17:15:05.850Z,1.13
2017-08-19T17:17:34.922Z,1.23
2017-08-19T17:20:03.215Z,0.60
2017-08-19T17:22:31.490Z,0.60
2017-08-19T17:24:59.808Z,0.60
2017-08-19T17:27:28.882Z,0.70
2017-08-19T17:29:57.162Z,1.20
2017-08-19T17:32:25.490Z,0.87
2017-08-19T17:34:53.785Z,0.60
2017-08-19T17:37:22.850Z,0.80
2017-08-19T17:39:51.133Z,0.80
2017-08-19T17:42:19.453Z,0.90
2017-08-19T17:44:47.746Z,0.90
2017-08-19T17:47:16.063Z,0.60
2017-08-19T17:49:44.351Z,0.90
2017-08-19T17:52:12.644Z,0.60
2017-08-19T17:54:40.972Z,0.80
2017-08-19T17:57:09.261Z,0.80
2017-08-19T17:59:37.806Z,0.80
2017-08-19T18:02:06.156Z,1.00
2017-08-19T18:04:34.476Z,0.93
2017-08-19T18:07:03.528Z,0.90
2017-08-19T18:09:31.816Z,1.00
2017-08-19T18:12:00.156Z,0.87
2017-08-19T18:14:28.449Z,1.00
2017-08-19T18:16:56.780Z,0.70
2017-08-19T18:19:25.054Z,0.97
2017-08-19T18:21:53.362Z,0.70
2017-08-19T18:24:21.651Z,1.10
2017-08-19T18:26:49.974Z,0.80
2017-08-19T18:29:18.266Z,0.97
2017-08-19T18:31:46.575Z,1.00
2017-08-19T18:34:15.660Z,1.03
2017-08-19T18:36:43.957Z,0.80
2017-08-19T18:39:12.249Z,0.93
2017-08-19T18:41:40.567Z,1.30
2017-08-19T18:44:09.652Z,0.67
2017-08-19T18:46:38.328Z,0.83
2017-08-19T18:49:06.608Z,1.00
2017-08-19T18:51:35.036Z,1.00
2017-08-19T18:54:03.429Z,1.40
2017-08-19T18:56:31.808Z,1.10
2017-08-19T18:59:00.094Z,1.17
2017-08-19T19:01:28.399Z,1.00
2017-08-19T19:03:56.674Z,2.00
2017-08-19T19:06:24.959Z,1.00
2017-08-19T19:08:53.284Z,0.90
2017-08-19T19:11:22.358Z,0.90
2017-08-19T19:13:50.654Z,1.23
2017-08-19T19:16:19.870Z,1.00
2017-08-19T19:18:48.207Z,0.90
2017-08-19T19:21:16.551Z,1.23
2017-08-19T19:23:44.888Z,1.43
2017-08-19T19:26:13.180Z,1.10
2017-08-19T19:28:41.465Z,1.17
2017-08-19T19:31:09.797Z,0.90
2017-08-19T19:33:38.084Z,0.90
2017-08-19T19:36:06.390Z,1.00
2017-08-19T19:38:35.497Z,1.43
2017-08-19T19:41:03.812Z,0.80
2017-08-19T19:43:32.136Z,1.00
2017-08-19T19:46:00.415Z,0.87
2017-08-19T19:48:28.723Z,0.93
2017-08-19T19:50:57.022Z,0.83
2017-08-19T19:53:25.336Z,0.77
2017-08-19T19:55:54.466Z,0.90
2017-08-19T19:58:22.746Z,1.27
2017-08-19T20:00:51.836Z,0.90
2017-08-19T20:03:20.154Z,1.30
2017-08-19T20:05:48.456Z,1.80
2017-08-19T20:08:16.742Z,0.90
2017-08-19T20:10:45.069Z,1.10
2017-08-19T20:13:13.380Z,0.90
2017-08-19T20:15:41.764Z,6.10
2017-08-19T20:18:10.066Z,999.90
2017-08-19T20:20:39.173Z,1.00
2017-08-19T20:23:07.556Z,0.70
2017-08-19T20:25:35.845Z,0.60
2017-08-19T20:28:04.164Z,0.63
2017-08-19T20:30:33.214Z,0.80
2017-08-19T20:33:01.530Z,1.00
2017-08-19T20:35:29.825Z,1.20
2017-08-19T20:37:58.218Z,1.00
2017-08-19T20:40:26.599Z,0.70
2017-08-19T20:42:54.897Z,0.73
2017-08-19T20:45:23.221Z,0.90
2017-08-19T20:47:51.568Z,0.90
2017-08-19T20:50:19.998Z,0.70
2017-08-19T20:52:48.289Z,1.20
2017-08-19T20:55:16.573Z,0.90
2017-08-19T20:57:44.874Z,1.00
2017-08-19T21:00:13.172Z,1.20
2017-08-19T21:02:41.460Z,1.30
2017-08-19T21:05:09.782Z,0.70
2017-08-19T21:07:38.096Z,1.10
2017-08-19T21:10:06.489Z,1.03
2017-08-19T21:12:34.763Z,1.10
2017-08-19T21:15:03.046Z,1.23
2017-08-19T21:17:31.359Z,1.27
2017-08-19T21:20:00.468Z,0.90
2017-08-19T21:22:29.555Z,0.97
2017-08-19T21:24:57.857Z,1.50
2017-08-19T21:27:26.254Z,69.47
2017-08-19T21:29:55.349Z,2.00
2017-08-19T21:32:23.670Z,999.90
2017-08-19T21:34:51.983Z,999.90
2017-08-19T21:37:20.390Z,999.90
2017-08-19T21:39:48.732Z,999.90
2017-08-19T21:42:17.826Z,999.90
2017-08-19T21:44:47.068Z,999.90
2017-08-19T21:47:15.408Z,999.90
2017-08-19T21:49:43.891Z,999.90
2017-08-19T21:52:12.243Z,999.90
2017-08-19T21:54:40.557Z,999.90
2017-08-19T21:57:08.892Z,999.90
2017-08-19T21:59:38.948Z,999.90
2017-08-19T22:02:07.408Z,999.90
2017-08-19T22:04:36.478Z,999.90
2017-08-19T22:07:04.786Z,999.90
2017-08-19T22:09:33.130Z,999.90
2017-08-19T22:12:01.468Z,999.90
2017-08-19T22:14:29.798Z,999.90
2017-08-19T22:16:58.112Z,999.90
2017-08-19T22:19:26.433Z,999.90
2017-08-19T22:21:54.766Z,999.90
2017-08-19T22:24:23.860Z,999.90
2017-08-19T22:26:52.215Z,999.90
2017-08-19T22:29:20.529Z,999.90
2017-08-19T22:31:48.858Z,999.90
2017-08-19T22:34:17.172Z,999.90
2017-08-19T22:36:45.514Z,999.90
2017-08-19T22:39:14.588Z,999.90
2017-08-19T22:41:42.943Z,999.90
2017-08-19T22:44:11.265Z,999.90
2017-08-19T22:46:39.570Z,999.90
2017-08-19T22:49:07.917Z,999.90
2017-08-19T22:51:36.222Z,999.90
2017-08-19T22:54:05.571Z,999.90
2017-08-19T22:56:33.896Z,999.90
2017-08-19T22:59:02.256Z,999.90
2017-08-19T23:01:31.363Z,999.90
2017-08-19T23:04:00.443Z,999.90
2017-08-19T23:06:28.792Z,999.90
2017-08-19T23:08:57.131Z,999.90
2017-08-19T23:11:25.463Z,999.90
2017-08-19T23:13:53.774Z,999.90
2017-08-19T23:16:22.115Z,999.90
2017-08-19T23:18:50.411Z,1.90
2017-08-19T23:21:18.728Z,1.60
2017-08-19T23:23:47.058Z,2.63
2017-08-19T23:26:15.338Z,2.30
2017-08-19T23:28:43.622Z,2.20
2017-08-19T23:31:11.950Z,2.10
2017-08-19T23:33:40.238Z,2.10
2017-08-19T23:36:08.520Z,2.47
2017-08-19T23:38:36.929Z,2.30
2017-08-19T23:41:05.207Z,3.00
2017-08-19T23:43:33.528Z,2.40
2017-08-19T23:46:02.575Z,2.03
2017-08-19T23:48:30.895Z,2.33
2017-08-19T23:50:59.206Z,2.33
2017-08-19T23:53:28.264Z,3.30
2017-08-19T23:55:56.588Z,2.67
2017-08-19T23:58:24.894Z,2.60
